メインページ
METAR-TAF:

METAR-TAF

空港 :

ウシュアイア国際空港

ウシュアイア, アルゼンチン

緯度: 54-48S, 経度: 068-19W, 海抜: 16m

現時点の気象観測

当レポートは1時間4分前の20:00(UTC)に作成
南西の風 26kt
気温 5°C
湿度 75%
気圧 994 hPa
視程10km以上
高度2700ftの雲はほとんどない
高度5000ftの雲は散在している

METAR: SAWH 162000Z 23026KT 9999 FEW027 SCT050 05/01 Q0994

時間: 18:04 (21:04 UTC)

予報

当レポートは4時間4分前の17:00(UTC)に作成
予報は16日の 18時(UTC)から 17日の 18時(UTC)まで有効
南西の風 30kt、最大40ktの突風を伴う
視程10km以上
高度2500ftの雲は散在している
高度5000ftの千切れ雲あり
16日の 19時(UTC)から 16日の 22時(UTC)まで一時的に
視程: 8000m
高度2000ftの雲は散在している, 塔状積雲.
高度5000ftの曇り
17日の 00時(UTC)から 17日の 03時(UTC)まで徐々に
西の風 20kt
高度3500ftの千切れ雲あり
高度7000ftの千切れ雲あり

TAF: SAWH 161700Z 1618/1718 23030G40KT 9999 SCT025 BKN050 TX07/1619Z TN03/1710Z TEMPO 1619/1622 8000 RA SCT020TCU OVC050 BECMG 1700/1703 26020KT BKN035 BKN070

4,000以上の空港の気象観測と天気予報(METAR報とTAF報)

利用可能な観測所は地図上に黄色い丸と赤い丸で示す。

丸の上にカーソルを重ねると観測所名を参照できる。

次にクリックすると気象観測と天気予報を参照できる。

マップの切り替え:黒色「×」印の緑ボタンをクリックして拡大、「-」印の緑ボタンをクリックして縮小、緑色の三角印をクリックして隣りの地図に切り替え


METAR-TAF: